Pagrindinis puslapis
METAR-TAF:

METAR-TAF

Oro uostai :

Erzindžanas, Turkija

platuma: 39-44N, ilguma: 039-30E, Aukštis: 1156 m

Dabartinis oras

Ataskaita buvo paskelbta 47 minutes, ne 20:50 UTC
Vėjas 1 kt nuo kintamojo kryptimis
Temperatūra -4°C
Drėgmė 93%
Slėgis 1020 hPa
Matomumas: 6000 m
Mažai debesys ne aukštis 4000 ft
Išsisklaidę debesys ne aukštis 10000 ft

METAR: LTCD 102050Z VRB01KT 6000 FEW040 SCT100 M04/M05 Q1020 NOSIG

Laikas: 00:37 (21:37 UTC)

Prognozė

Ataskaita buvo paskelbta 1 valandą ir 57 minutes, ne 19:40 UTC
Prognozė galioja nuo 10 metu 21 UTC su 11 metu 06 UTC
Vėjas 2 kt nuo kintamojo kryptimis
Matomumas: 6000 m
Mažai debesys ne aukštis 4000 ft
Išsisklaidę debesys ne aukštis 10000 ft

TAF: LTCD 101940Z 1021/1106 VRB02KT 6000 FEW040 SCT100

Orai ataskaitas ir orų prognozės (METAR, TAF).

turimą stotys yra geltonos ir raudonos taškus žemėlapyje.

Perkelti pele per norėdami pamatyti stoties vardą.

Tada spustelėkite, norėdami matyti oro stebėjimo ir prognozės.

Norėdami pakeisti žemėlapį: spustelėkite ant žalios mygtukų su juodo kryžiaus žemyn,; žalią mygtuką su brūkšneliu, jei norite nutolinti; arba žalių rodyklių gretimoms žemėlapius.


METAR-TAF: